Terminal Aerodrome Forecast
Issued by NWS

Home | Current Version | Previous Version | Text Only | Print | Product List | Glossary On
Versions: 1 2 3 4 5 6 7 8 9 10 11 12
000
FTUS43 KMQT 251125
TAFSAW
TAF
KSAW 251125Z 2512/2612 36011G18KT P6SM SCT018 BKN030
      TEMPO 2512/2515 BKN018
     FM251600 01011G17KT P6SM SKC
     FM251900 03007KT P6SM SKC
     FM260500 20004KT P6SM SKC=

USA.gov is the U.S. government's official web portal to all federal, state and local government web resources and services.